Terminal Aerodrome Forecast
Issued by NWS

Home | Current Version | Previous Version | Text Only | Print | Product List | Glossary On
Versions: 1 2 3 4 5 6 7 8 9 10 11 12 13 14 15 16 17 18 19 20 21 22 23 24
351
FTUS41 KPHI 240935 AAA
TAFMIV
TAF AMD
KMIV 240935Z 2410/2506 VRB02KT P6SM -SHRA SCT060 BKN120
     FM241200 31004KT P6SM SCT050 BKN100
     FM241600 30008KT P6SM BKN050 OVC150
     FM242300 27004KT P6SM SCT120
     FM250200 00000KT P6SM SKC=

USA.gov is the U.S. government's official web portal to all federal, state and local government web resources and services.